createdAt,value
2022-10-06T00:00:55.841Z,88.53
2022-10-06T00:03:23.030Z,88.75
2022-10-06T00:05:50.942Z,88.62
2022-10-06T00:08:18.533Z,88.05
2022-10-06T00:10:45.033Z,89.26
2022-10-06T00:13:11.521Z,89.15
2022-10-06T00:15:38.014Z,89.23
2022-10-06T00:18:04.647Z,89.80
2022-10-06T00:20:31.978Z,89.09
2022-10-06T00:22:58.407Z,88.71
2022-10-06T00:25:25.887Z,89.14
2022-10-06T00:27:53.142Z,89.22
2022-10-06T00:30:25.142Z,89.38
2022-10-06T00:32:54.626Z,88.84
2022-10-06T00:35:21.523Z,88.48
2022-10-06T00:37:48.250Z,89.29
2022-10-06T00:40:15.034Z,88.57
2022-10-06T00:42:53.620Z,89.54
2022-10-06T00:45:36.236Z,90.16
2022-10-06T00:48:07.976Z,89.98
2022-10-06T00:50:36.038Z,89.61
2022-10-06T00:53:03.304Z,88.80
2022-10-06T00:55:30.984Z,87.96
2022-10-06T00:57:59.247Z,87.89
2022-10-06T01:00:25.940Z,89.18
2022-10-06T01:03:01.998Z,88.40
2022-10-06T01:05:42.128Z,88.22
2022-10-06T01:08:08.826Z,87.88
2022-10-06T01:10:35.293Z,86.99
2022-10-06T01:13:02.250Z,87.69
2022-10-06T01:15:29.129Z,86.80
2022-10-06T01:18:02.866Z,87.80
2022-10-06T01:20:29.975Z,87.76
2022-10-06T01:23:01.958Z,86.94
2022-10-06T01:25:28.533Z,87.30
2022-10-06T01:27:56.320Z,88.04
2022-10-06T01:30:29.684Z,88.55
2022-10-06T01:32:56.560Z,88.62
2022-10-06T01:35:22.981Z,88.37
2022-10-06T01:37:49.375Z,88.05
2022-10-06T01:40:15.903Z,87.37
2022-10-06T01:42:42.330Z,88.00
2022-10-06T01:45:09.105Z,87.76
2022-10-06T01:47:35.588Z,88.75
2022-10-06T01:50:01.993Z,88.32
2022-10-06T01:52:28.400Z,89.06
2022-10-06T01:54:54.948Z,89.30
2022-10-06T01:57:21.428Z,89.90
2022-10-06T01:59:52.615Z,89.83
2022-10-06T02:02:21.042Z,89.88
2022-10-06T02:04:47.722Z,89.22
2022-10-06T02:07:14.169Z,90.15
2022-10-06T02:09:44.845Z,90.00
2022-10-06T02:12:11.344Z,90.82
2022-10-06T02:14:37.831Z,91.06
2022-10-06T02:17:04.267Z,91.28
2022-10-06T02:19:30.689Z,91.38
2022-10-06T02:21:58.240Z,89.83
2022-10-06T02:24:27.374Z,90.71
2022-10-06T02:26:54.245Z,90.75
2022-10-06T02:29:20.693Z,90.82
2022-10-06T02:31:47.911Z,92.21
2022-10-06T02:34:14.300Z,91.96
2022-10-06T02:36:40.734Z,92.40
2022-10-06T02:39:07.132Z,91.92
2022-10-06T02:41:33.627Z,91.87
2022-10-06T02:44:00.026Z,91.51
2022-10-06T02:46:26.857Z,91.75
2022-10-06T02:48:56.164Z,91.82
2022-10-06T02:51:22.881Z,92.19
2022-10-06T02:53:50.248Z,92.43
2022-10-06T02:56:20.897Z,91.47
2022-10-06T02:58:50.608Z,90.90
2022-10-06T03:01:19.959Z,90.78
2022-10-06T03:03:47.776Z,90.78
2022-10-06T03:06:24.719Z,90.49
2022-10-06T03:09:03.532Z,90.82
2022-10-06T03:11:41.030Z,90.50
2022-10-06T03:14:07.500Z,90.77
2022-10-06T03:16:39.516Z,91.38
2022-10-06T03:19:11.114Z,91.33
2022-10-06T03:21:40.846Z,91.59
2022-10-06T03:24:07.410Z,92.33
2022-10-06T03:26:39.942Z,92.08
2022-10-06T03:29:11.354Z,92.23
2022-10-06T03:31:39.394Z,92.59
2022-10-06T03:34:05.961Z,92.43
2022-10-06T03:36:33.754Z,92.07
2022-10-06T03:39:01.017Z,92.27
2022-10-06T03:41:30.150Z,92.00
2022-10-06T03:43:58.852Z,91.37
2022-10-06T03:46:28.172Z,91.33
2022-10-06T03:48:57.310Z,92.01
2022-10-06T03:51:29.686Z,92.68
2022-10-06T03:53:57.063Z,91.74
2022-10-06T03:56:26.462Z,91.70
2022-10-06T03:58:59.677Z,92.15
2022-10-06T04:01:36.583Z,92.41
2022-10-06T04:04:07.059Z,93.75
2022-10-06T04:06:44.468Z,92.71
2022-10-06T04:09:15.511Z,93.29
2022-10-06T04:11:43.628Z,93.41
2022-10-06T04:14:13.008Z,93.75
2022-10-06T04:16:47.931Z,93.68
2022-10-06T04:19:16.195Z,93.83
2022-10-06T04:21:45.420Z,94.04
2022-10-06T04:24:12.774Z,93.23
2022-10-06T04:26:42.110Z,94.00
2022-10-06T04:29:11.431Z,93.51
2022-10-06T04:31:39.212Z,93.21
2022-10-06T04:34:07.336Z,93.86
2022-10-06T04:36:40.961Z,93.80
2022-10-06T04:39:10.245Z,94.57
2022-10-06T04:41:39.023Z,94.45
2022-10-06T04:44:06.221Z,94.83
2022-10-06T04:46:43.613Z,94.22
2022-10-06T04:49:20.800Z,93.72
2022-10-06T04:51:49.140Z,93.01
2022-10-06T04:54:15.869Z,93.42
2022-10-06T04:56:42.329Z,93.20
2022-10-06T04:59:08.720Z,93.28
2022-10-06T05:01:37.234Z,92.66
2022-10-06T05:04:05.025Z,93.02
2022-10-06T05:06:40.920Z,93.05
2022-10-06T05:09:10.123Z,93.64
2022-10-06T05:11:38.628Z,93.87
2022-10-06T05:14:05.323Z,93.93
2022-10-06T05:16:32.106Z,94.74
2022-10-06T05:18:59.128Z,94.88
2022-10-06T05:21:28.412Z,94.68
2022-10-06T05:23:54.938Z,94.37
2022-10-06T05:26:23.600Z,94.00
2022-10-06T05:28:50.574Z,94.31
2022-10-06T05:31:20.453Z,94.14
2022-10-06T05:33:47.266Z,93.91
2022-10-06T05:36:15.778Z,93.94
2022-10-06T05:38:43.995Z,94.34
2022-10-06T05:41:19.357Z,95.11
2022-10-06T05:43:45.883Z,95.33
2022-10-06T05:46:20.282Z,95.14
2022-10-06T05:48:48.041Z,95.27
2022-10-06T05:51:14.909Z,94.75
2022-10-06T05:53:41.550Z,94.81
2022-10-06T05:56:13.157Z,95.60
2022-10-06T05:58:42.106Z,95.21
2022-10-06T06:01:11.771Z,94.05
2022-10-06T06:03:39.847Z,94.74
2022-10-06T06:06:22.580Z,94.21
2022-10-06T06:08:53.700Z,93.98
2022-10-06T06:11:26.331Z,94.29
2022-10-06T06:13:56.882Z,94.09
2022-10-06T06:16:23.990Z,94.91
2022-10-06T06:18:50.790Z,95.53
2022-10-06T06:21:17.740Z,96.64
2022-10-06T06:23:51.429Z,94.88
2022-10-06T06:26:29.176Z,94.51
2022-10-06T06:29:02.489Z,94.35
2022-10-06T06:31:31.382Z,94.72
2022-10-06T06:33:59.893Z,95.11
2022-10-06T06:37:08.357Z,95.03
2022-10-06T06:39:36.130Z,95.14
2022-10-06T06:42:24.715Z,94.83
2022-10-06T06:44:51.099Z,95.56
2022-10-06T06:47:19.157Z,94.96
2022-10-06T06:49:53.816Z,94.83
2022-10-06T06:52:20.682Z,94.01
2022-10-06T06:54:49.901Z,93.87
2022-10-06T06:57:22.262Z,93.26
2022-10-06T06:59:48.639Z,93.31
2022-10-06T07:02:17.132Z,92.65
2022-10-06T07:04:43.958Z,92.65
2022-10-06T07:07:11.418Z,92.51
2022-10-06T07:09:38.088Z,92.41
2022-10-06T07:12:04.476Z,92.15
2022-10-06T07:14:30.912Z,92.07
2022-10-06T07:17:35.799Z,91.91
2022-10-06T07:20:20.601Z,91.71
2022-10-06T07:23:05.502Z,91.85
2022-10-06T07:25:32.072Z,91.05
2022-10-06T07:27:58.637Z,90.73
2022-10-06T07:30:29.260Z,90.46
2022-10-06T07:32:55.818Z,90.24
2022-10-06T07:35:23.971Z,89.59
2022-10-06T07:37:51.284Z,88.04
2022-10-06T07:40:17.808Z,88.05
2022-10-06T07:42:52.084Z,87.91
2022-10-06T07:45:41.656Z,87.26
2022-10-06T07:48:14.343Z,86.56
2022-10-06T07:50:49.261Z,86.00
2022-10-06T07:53:17.690Z,84.86
2022-10-06T07:55:46.563Z,84.40
2022-10-06T07:58:17.282Z,84.41
2022-10-06T08:00:44.887Z,83.61
2022-10-06T08:03:23.598Z,81.85
2022-10-06T08:05:57.558Z,81.87
2022-10-06T08:08:24.240Z,79.10
2022-10-06T08:11:01.554Z,78.38
2022-10-06T08:13:28.692Z,78.68
2022-10-06T08:15:56.518Z,78.46
2022-10-06T08:18:45.438Z,78.65
2022-10-06T08:21:14.236Z,76.87
2022-10-06T08:23:44.887Z,76.95
2022-10-06T08:26:12.899Z,76.67
2022-10-06T08:28:40.127Z,76.47
2022-10-06T08:31:11.530Z,76.97
2022-10-06T08:33:39.691Z,77.50
2022-10-06T08:36:08.651Z,76.43
2022-10-06T08:38:37.054Z,77.29
2022-10-06T08:41:24.878Z,76.64
2022-10-06T08:43:57.374Z,76.24
2022-10-06T08:46:28.067Z,75.65
2022-10-06T08:48:54.499Z,75.72
2022-10-06T08:51:30.020Z,74.68
2022-10-06T08:54:29.869Z,73.48
2022-10-06T08:57:21.426Z,74.27
2022-10-06T08:59:53.476Z,74.15
2022-10-06T09:02:30.246Z,71.60
2022-10-06T09:05:01.130Z,72.76
2022-10-06T09:07:54.099Z,71.19
2022-10-06T09:10:42.016Z,71.98
2022-10-06T09:13:21.625Z,71.76
2022-10-06T09:15:58.196Z,73.34
2022-10-06T09:18:49.468Z,71.17
2022-10-06T09:21:34.869Z,71.16
2022-10-06T09:24:07.546Z,69.34
2022-10-06T09:26:34.453Z,69.41
2022-10-06T09:29:00.960Z,70.45
2022-10-06T09:31:38.190Z,69.07
2022-10-06T09:34:28.475Z,69.79
2022-10-06T09:37:08.987Z,69.78
2022-10-06T09:39:38.349Z,67.70
2022-10-06T09:42:13.408Z,68.91
2022-10-06T09:44:53.520Z,68.22
2022-10-06T09:47:35.066Z,70.17
2022-10-06T09:50:20.153Z,68.46
2022-10-06T09:53:16.320Z,67.78
2022-10-06T09:55:52.257Z,69.53
2022-10-06T09:58:22.430Z,70.99
2022-10-06T10:01:09.228Z,69.00
2022-10-06T10:04:19.918Z,67.60
2022-10-06T10:06:47.796Z,66.84
2022-10-06T10:09:20.615Z,67.32
2022-10-06T10:12:25.028Z,65.66
2022-10-06T10:15:04.413Z,65.95
2022-10-06T10:17:48.140Z,64.89
2022-10-06T10:20:55.804Z,65.84
2022-10-06T10:23:31.638Z,63.58
2022-10-06T10:26:13.831Z,64.57
2022-10-06T10:28:59.848Z,65.61
2022-10-06T10:31:56.118Z,63.92
2022-10-06T10:34:42.740Z,63.42
2022-10-06T10:37:14.104Z,64.39
2022-10-06T10:39:52.621Z,61.85
2022-10-06T10:42:28.647Z,63.19
2022-10-06T10:45:02.885Z,64.46
2022-10-06T10:47:41.765Z,64.15
2022-10-06T10:50:29.267Z,61.96
2022-10-06T10:53:15.015Z,62.30
2022-10-06T10:55:44.520Z,62.74
2022-10-06T10:58:19.021Z,62.82
2022-10-06T11:00:49.948Z,63.98
2022-10-06T11:03:16.491Z,63.18
2022-10-06T11:05:59.136Z,63.45
2022-10-06T11:08:56.322Z,63.07
2022-10-06T11:12:02.132Z,63.92
2022-10-06T11:14:55.928Z,61.78
2022-10-06T11:17:40.241Z,63.39
2022-10-06T11:20:26.548Z,62.19
2022-10-06T11:23:30.456Z,62.86
2022-10-06T11:26:26.490Z,62.24
2022-10-06T11:29:34.735Z,61.37
2022-10-06T11:32:21.897Z,61.40
2022-10-06T11:34:49.883Z,62.35
2022-10-06T11:37:22.481Z,62.60
2022-10-06T11:40:15.888Z,62.64
2022-10-06T11:43:20.076Z,62.47
2022-10-06T11:46:04.862Z,62.94
2022-10-06T11:48:33.709Z,61.11
2022-10-06T11:51:24.475Z,60.65
2022-10-06T11:53:52.144Z,61.28
2022-10-06T11:56:18.560Z,60.76
2022-10-06T11:58:51.157Z,61.78
2022-10-06T12:01:38.999Z,60.39
2022-10-06T12:04:08.407Z,60.11
2022-10-06T12:06:47.064Z,61.99
2022-10-06T12:09:30.743Z,58.58
2022-10-06T12:12:15.588Z,59.68
2022-10-06T12:18:26.267Z,57.88
2022-10-06T12:21:06.229Z,59.16
2022-10-06T12:24:18.432Z,58.36
2022-10-06T12:26:44.788Z,59.02
2022-10-06T12:29:38.105Z,58.12
2022-10-06T12:32:12.988Z,57.87
2022-10-06T12:34:39.344Z,57.43
2022-10-06T12:37:36.827Z,55.87
2022-10-06T12:40:23.032Z,56.68
2022-10-06T12:43:29.657Z,55.28
2022-10-06T12:45:57.220Z,56.58
2022-10-06T12:48:51.716Z,58.52
2022-10-06T12:51:23.195Z,59.08
2022-10-06T12:54:22.193Z,60.67
2022-10-06T12:57:14.600Z,59.65
2022-10-06T12:59:41.798Z,59.53
2022-10-06T13:02:21.193Z,58.83
2022-10-06T13:05:01.508Z,59.15
2022-10-06T13:07:31.139Z,60.24
2022-10-06T13:10:15.934Z,59.12
2022-10-06T13:12:47.427Z,58.53
2022-10-06T13:15:25.350Z,58.68
2022-10-06T13:18:14.356Z,58.51
2022-10-06T13:20:50.450Z,57.53
2022-10-06T13:23:24.595Z,58.66
2022-10-06T13:26:15.532Z,57.56
2022-10-06T13:28:43.932Z,57.27
2022-10-06T13:31:34.643Z,57.95
2022-10-06T13:34:12.845Z,58.44
2022-10-06T13:36:43.840Z,57.41
2022-10-06T13:39:18.784Z,57.14
2022-10-06T13:42:06.080Z,56.88
2022-10-06T13:44:45.045Z,57.01
2022-10-06T13:47:21.333Z,56.45
2022-10-06T13:49:53.138Z,56.97
2022-10-06T13:52:30.129Z,60.22
2022-10-06T13:54:58.505Z,60.29
2022-10-06T13:57:47.877Z,60.48
2022-10-06T14:00:14.233Z,60.48
2022-10-06T14:02:45.222Z,61.01
2022-10-06T14:05:26.352Z,60.38
2022-10-06T14:07:56.623Z,61.08
2022-10-06T14:10:34.164Z,60.53
2022-10-06T14:13:01.470Z,60.04
2022-10-06T14:15:45.352Z,60.84
2022-10-06T14:18:46.837Z,62.61
2022-10-06T14:21:41.874Z,64.44
2022-10-06T14:24:18.842Z,64.43
2022-10-06T14:26:54.942Z,65.47
2022-10-06T14:29:23.063Z,64.62
2022-10-06T14:31:49.599Z,64.92
2022-10-06T14:34:21.959Z,66.26
2022-10-06T14:36:55.085Z,66.91
2022-10-06T14:39:22.060Z,66.75
2022-10-06T14:41:55.554Z,66.91
2022-10-06T14:44:24.007Z,66.96
2022-10-06T14:46:58.576Z,66.65
2022-10-06T14:49:29.197Z,66.51
2022-10-06T14:51:59.820Z,66.83
2022-10-06T14:54:35.101Z,67.22
2022-10-06T14:57:02.552Z,67.55
2022-10-06T14:59:32.646Z,67.56
2022-10-06T15:01:59.113Z,65.84
2022-10-06T15:04:31.835Z,66.65
2022-10-06T15:07:19.678Z,65.79
2022-10-06T15:09:53.083Z,66.97
2022-10-06T15:12:23.592Z,67.17
2022-10-06T15:14:50.991Z,67.13
2022-10-06T15:17:24.349Z,66.79
2022-10-06T15:19:54.805Z,66.70
2022-10-06T15:22:21.242Z,66.66
2022-10-06T15:24:52.704Z,66.58
2022-10-06T15:27:37.787Z,66.93
2022-10-06T15:30:16.700Z,65.81
2022-10-06T15:32:43.075Z,66.39
2022-10-06T15:35:11.814Z,66.91
2022-10-06T15:37:48.479Z,66.52
2022-10-06T15:40:16.342Z,65.19
2022-10-06T15:42:46.698Z,64.05
2022-10-06T15:45:14.216Z,64.98
2022-10-06T15:47:40.684Z,64.81
2022-10-06T15:50:07.993Z,64.66
2022-10-06T15:52:34.579Z,65.49
2022-10-06T15:55:00.988Z,66.14
2022-10-06T15:57:28.872Z,65.88
2022-10-06T15:59:55.279Z,66.80
2022-10-06T16:02:22.419Z,67.49
2022-10-06T16:05:16.760Z,67.08
2022-10-06T16:07:43.205Z,68.32
2022-10-06T16:10:09.581Z,67.76
2022-10-06T16:12:35.973Z,67.93
2022-10-06T16:15:02.519Z,67.83
2022-10-06T16:17:28.924Z,68.20
2022-10-06T16:19:58.518Z,68.13
2022-10-06T16:22:24.902Z,68.64
2022-10-06T16:24:51.379Z,68.12
2022-10-06T16:27:18.475Z,68.46
2022-10-06T16:29:45.105Z,68.84
2022-10-06T16:32:17.220Z,69.19
2022-10-06T16:34:43.762Z,68.57
2022-10-06T16:37:10.262Z,69.56
2022-10-06T16:39:36.675Z,69.79
2022-10-06T16:42:03.768Z,69.22
2022-10-06T16:44:33.237Z,69.71
2022-10-06T16:46:59.719Z,70.16
2022-10-06T16:49:28.173Z,70.18
2022-10-06T16:51:54.578Z,70.52
2022-10-06T16:54:21.037Z,71.06
2022-10-06T16:56:53.836Z,71.31
2022-10-06T16:59:26.457Z,71.03
2022-10-06T17:01:52.923Z,71.34
2022-10-06T17:04:21.786Z,71.27
2022-10-06T17:06:57.452Z,72.49
2022-10-06T17:09:29.012Z,72.08
2022-10-06T17:11:59.985Z,73.33
2022-10-06T17:14:27.844Z,75.10
2022-10-06T17:16:56.091Z,75.73
2022-10-06T17:19:24.912Z,76.66
2022-10-06T17:21:57.473Z,77.00
2022-10-06T17:24:28.269Z,77.84
2022-10-06T17:26:55.867Z,76.20
2022-10-06T17:29:23.544Z,76.77
2022-10-06T17:32:00.134Z,77.74
2022-10-06T17:34:31.717Z,77.25
2022-10-06T17:36:59.273Z,76.91
2022-10-06T17:39:25.660Z,76.13
2022-10-06T17:41:53.400Z,76.50
2022-10-06T17:44:23.547Z,75.79
2022-10-06T17:46:56.800Z,77.13
2022-10-06T17:49:25.348Z,76.86
2022-10-06T17:51:53.679Z,76.34
2022-10-06T17:54:22.768Z,77.10
2022-10-06T17:56:53.037Z,77.37
2022-10-06T17:59:25.991Z,76.56
2022-10-06T18:01:56.332Z,76.66
2022-10-06T18:04:23.403Z,78.02
2022-10-06T18:06:52.873Z,78.24
2022-10-06T18:09:19.522Z,78.39
2022-10-06T18:11:48.443Z,78.43
2022-10-06T18:14:19.736Z,76.63
2022-10-06T18:16:53.447Z,76.52
2022-10-06T18:19:35.521Z,76.49
2022-10-06T18:22:09.837Z,76.79
2022-10-06T18:24:36.577Z,76.87
2022-10-06T18:27:05.019Z,78.90
2022-10-06T18:29:33.422Z,77.76
2022-10-06T18:32:40.267Z,77.03
2022-10-06T18:37:34.062Z,78.21
2022-10-06T18:40:02.391Z,78.15
2022-10-06T18:42:29.104Z,77.47
2022-10-06T18:45:14.183Z,78.92
2022-10-06T18:47:58.956Z,79.17
2022-10-06T18:50:35.004Z,79.27
2022-10-06T18:53:01.708Z,79.54
2022-10-06T18:55:29.742Z,79.97
2022-10-06T18:57:56.163Z,79.84
2022-10-06T19:00:22.608Z,80.38
2022-10-06T19:02:51.744Z,80.09
2022-10-06T19:05:18.253Z,80.98
2022-10-06T19:07:45.121Z,81.54
2022-10-06T19:10:11.916Z,81.57
2022-10-06T19:12:38.311Z,81.86
2022-10-06T19:15:05.163Z,81.82
2022-10-06T19:17:32.199Z,81.66
2022-10-06T19:19:58.590Z,81.92
2022-10-06T19:22:25.139Z,82.31
2022-10-06T19:24:52.230Z,82.48
2022-10-06T19:27:23.907Z,82.62
2022-10-06T19:29:54.085Z,83.45
2022-10-06T19:32:26.743Z,82.20
2022-10-06T19:34:54.851Z,83.32
2022-10-06T19:37:21.324Z,83.49
2022-10-06T19:39:50.117Z,83.55
2022-10-06T19:42:36.837Z,82.75
2022-10-06T19:45:05.334Z,82.67
2022-10-06T19:47:31.827Z,83.54
2022-10-06T19:50:04.929Z,85.04
2022-10-06T19:52:34.491Z,85.02
2022-10-06T19:55:01.164Z,85.89
2022-10-06T19:57:29.176Z,86.12
2022-10-06T19:59:55.587Z,86.85
2022-10-06T20:02:22.271Z,86.64
2022-10-06T20:04:48.762Z,87.43
2022-10-06T20:07:15.200Z,87.46
2022-10-06T20:09:47.683Z,87.02
2022-10-06T20:12:14.092Z,88.28
2022-10-06T20:14:40.476Z,88.04
2022-10-06T20:17:06.943Z,88.48
2022-10-06T20:19:34.321Z,88.99
2022-10-06T20:22:01.099Z,89.04
2022-10-06T20:24:27.839Z,89.31
2022-10-06T20:26:54.306Z,90.13
2022-10-06T20:29:25.331Z,89.34
2022-10-06T20:31:54.574Z,88.50
2022-10-06T20:34:26.665Z,89.30
2022-10-06T20:36:56.177Z,89.34
2022-10-06T20:39:41.997Z,89.99
2022-10-06T20:42:14.974Z,90.43
2022-10-06T20:44:42.910Z,90.76
2022-10-06T20:47:10.525Z,90.74
2022-10-06T20:49:37.625Z,89.83
2022-10-06T20:52:05.436Z,90.09
2022-10-06T20:54:34.931Z,90.80
2022-10-06T20:57:04.298Z,90.38
2022-10-06T20:59:31.459Z,90.00
2022-10-06T21:02:00.947Z,89.60
2022-10-06T21:04:27.714Z,90.67
2022-10-06T21:06:54.703Z,91.04
2022-10-06T21:09:21.771Z,91.61
2022-10-06T21:11:48.657Z,92.09
2022-10-06T21:14:16.176Z,91.06
2022-10-06T21:16:45.410Z,92.23
2022-10-06T21:19:14.598Z,89.79
2022-10-06T21:21:42.730Z,91.18
2022-10-06T21:24:09.962Z,92.46
2022-10-06T21:26:42.702Z,93.42
2022-10-06T21:29:12.984Z,94.96
2022-10-06T21:31:39.871Z,93.83
2022-10-06T21:34:06.499Z,93.06
2022-10-06T21:36:33.212Z,93.55
2022-10-06T21:39:06.712Z,94.72
2022-10-06T21:41:38.872Z,93.85
2022-10-06T21:44:13.316Z,93.44
2022-10-06T21:46:40.975Z,92.09
2022-10-06T21:49:12.606Z,90.59
2022-10-06T21:51:40.503Z,90.64
2022-10-06T21:54:07.830Z,90.86
2022-10-06T21:56:34.409Z,91.28
2022-10-06T21:59:01.083Z,93.39
2022-10-06T22:01:30.051Z,91.73
2022-10-06T22:03:58.608Z,92.03
2022-10-06T22:06:25.234Z,92.46
2022-10-06T22:08:51.846Z,93.04
2022-10-06T22:11:24.561Z,92.33
2022-10-06T22:13:55.215Z,92.45
2022-10-06T22:16:24.654Z,92.28
2022-10-06T22:18:51.489Z,93.39
2022-10-06T22:21:17.983Z,94.67
2022-10-06T22:23:46.323Z,94.86
2022-10-06T22:26:14.937Z,93.86
2022-10-06T22:28:47.027Z,92.45
2022-10-06T22:31:14.873Z,92.71
2022-10-06T22:33:42.418Z,92.57
2022-10-06T22:36:11.518Z,92.21
2022-10-06T22:38:38.701Z,92.65
2022-10-06T22:41:07.980Z,93.33
2022-10-06T22:43:35.341Z,94.28
2022-10-06T22:46:02.924Z,93.34
2022-10-06T22:48:29.750Z,93.69
2022-10-06T22:50:56.314Z,93.36
2022-10-06T22:53:24.979Z,93.66
2022-10-06T22:55:52.351Z,94.01
2022-10-06T22:58:19.457Z,94.34
2022-10-06T23:00:46.272Z,95.10
2022-10-06T23:03:13.123Z,94.05
2022-10-06T23:05:40.412Z,95.06
2022-10-06T23:08:07.966Z,96.45
2022-10-06T23:10:36.090Z,96.17
2022-10-06T23:13:03.213Z,96.42
2022-10-06T23:15:30.045Z,96.44
2022-10-06T23:17:56.617Z,96.07
2022-10-06T23:20:23.265Z,96.80
2022-10-06T23:22:49.828Z,95.74
2022-10-06T23:25:16.570Z,95.52
2022-10-06T23:27:43.378Z,94.95
2022-10-06T23:30:10.449Z,96.15
2022-10-06T23:32:37.654Z,97.75
2022-10-06T23:35:04.655Z,97.58
2022-10-06T23:37:31.265Z,97.77
2022-10-06T23:39:57.798Z,97.17
2022-10-06T23:42:24.343Z,98.18
2022-10-06T23:44:50.922Z,98.41
2022-10-06T23:47:17.475Z,98.31
2022-10-06T23:49:44.145Z,95.84
2022-10-06T23:52:11.213Z,97.23
2022-10-06T23:54:37.896Z,97.75
2022-10-06T23:57:04.619Z,96.94
2022-10-06T23:59:31.599Z,97.77
